createdAt,value
2019-03-30T00:02:10.651Z,96.90
2019-03-30T00:04:51.789Z,97.00
2019-03-30T00:07:32.746Z,97.20
2019-03-30T00:10:14.982Z,97.40
2019-03-30T00:12:57.412Z,97.50
2019-03-30T00:15:38.719Z,97.60
2019-03-30T00:18:20.242Z,97.80
2019-03-30T00:20:50.330Z,97.90
2019-03-30T00:23:20.389Z,97.90
2019-03-30T00:26:02.399Z,97.70
2019-03-30T00:28:43.745Z,97.80
2019-03-30T00:34:14.015Z,98.00
2019-03-30T00:36:55.538Z,98.10
2019-03-30T00:39:36.952Z,98.00
2019-03-30T00:42:18.322Z,98.00
2019-03-30T00:44:48.344Z,97.80
2019-03-30T00:47:37.885Z,97.60
2019-03-30T00:50:26.975Z,97.50
2019-03-30T00:53:16.011Z,97.50
2019-03-30T00:56:05.115Z,97.70
2019-03-30T00:58:55.024Z,98.00
2019-03-30T01:01:44.625Z,98.30
2019-03-30T01:07:28.975Z,98.70
2019-03-30T01:10:18.573Z,99.00
2019-03-30T01:13:07.682Z,99.10
2019-03-30T01:15:57.386Z,99.30
2019-03-30T01:18:46.373Z,99.60
2019-03-30T01:21:16.409Z,99.80
2019-03-30T01:24:25.509Z,99.90
2019-03-30T01:27:35.828Z,99.90
2019-03-30T01:30:24.913Z,99.90
2019-03-30T01:33:34.159Z,99.90
2019-03-30T01:36:23.693Z,99.90
2019-03-30T01:39:31.264Z,99.90
2019-03-30T01:42:20.872Z,99.90
2019-03-30T01:45:10.233Z,99.90
2019-03-30T01:48:18.856Z,99.90
2019-03-30T01:51:08.800Z,99.90
2019-03-30T01:53:58.365Z,99.90
2019-03-30T01:56:47.522Z,99.90
2019-03-30T01:59:36.638Z,99.90
2019-03-30T02:02:25.436Z,99.90
2019-03-30T02:04:55.484Z,99.90
2019-03-30T02:10:42.998Z,99.90
2019-03-30T02:16:22.666Z,99.90
2019-03-30T02:19:03.958Z,99.90
2019-03-30T02:21:45.158Z,99.90
2019-03-30T02:24:26.753Z,99.90
2019-03-30T02:29:51.894Z,99.90
2019-03-30T02:32:34.024Z,99.90
2019-03-30T02:35:15.608Z,99.90
2019-03-30T02:37:57.026Z,99.90
2019-03-30T02:43:54.346Z,99.90
2019-03-30T02:49:20.810Z,99.90
2019-03-30T02:52:02.216Z,99.90
2019-03-30T02:54:43.850Z,99.90
2019-03-30T02:57:25.627Z,99.90
2019-03-30T03:02:54.133Z,99.90
2019-03-30T03:05:35.640Z,99.90
2019-03-30T03:14:30.328Z,99.90
2019-03-30T03:17:14.636Z,99.90
2019-03-30T03:22:29.721Z,99.90
2019-03-30T03:28:13.600Z,99.90
2019-03-30T03:31:03.263Z,99.90
2019-03-30T03:33:52.122Z,99.90
2019-03-30T03:36:41.760Z,99.90
2019-03-30T03:39:31.434Z,99.90
2019-03-30T03:42:20.540Z,99.90
2019-03-30T03:45:28.378Z,99.90
2019-03-30T03:51:25.722Z,99.90
2019-03-30T03:54:04.436Z,99.90
2019-03-30T03:56:54.130Z,99.90
2019-03-30T03:59:43.196Z,99.90
2019-03-30T04:15:36.183Z,99.90
2019-03-30T04:18:17.600Z,99.90
2019-03-30T04:20:59.217Z,99.90
2019-03-30T04:23:40.755Z,99.90
2019-03-30T04:26:22.131Z,99.90
2019-03-30T04:29:03.303Z,99.90
2019-03-30T04:31:45.778Z,99.90
2019-03-30T04:34:27.274Z,99.90
2019-03-30T04:37:11.733Z,99.90
2019-03-30T04:39:53.119Z,99.90
2019-03-30T04:42:34.623Z,99.90
2019-03-30T04:45:17.142Z,99.90
2019-03-30T04:51:02.416Z,99.90
2019-03-30T04:53:46.872Z,99.90
2019-03-30T04:56:28.349Z,99.90
2019-03-30T04:59:10.075Z,99.90
2019-03-30T05:01:51.661Z,99.90
2019-03-30T05:04:33.011Z,99.90
2019-03-30T05:10:29.628Z,99.90
2019-03-30T05:13:10.984Z,99.90
2019-03-30T05:15:52.685Z,99.90
2019-03-30T05:18:34.002Z,99.90
2019-03-30T05:21:15.539Z,99.90
2019-03-30T05:23:57.466Z,99.90
2019-03-30T05:29:30.194Z,99.90
2019-03-30T05:32:11.754Z,99.90
2019-03-30T05:34:53.451Z,99.90
2019-03-30T05:37:35.166Z,99.90
2019-03-30T05:43:00.814Z,99.90
2019-03-30T05:45:43.733Z,99.90
2019-03-30T05:48:25.210Z,99.90
2019-03-30T05:51:09.748Z,99.90
2019-03-30T05:56:35.294Z,99.90
2019-03-30T05:59:16.802Z,99.90
2019-03-30T06:01:57.595Z,99.90
2019-03-30T06:07:24.270Z,99.90
2019-03-30T06:10:06.058Z,99.90
2019-03-30T06:12:47.587Z,99.90
2019-03-30T06:15:29.099Z,99.90
2019-03-30T06:21:06.798Z,99.90
2019-03-30T06:23:48.999Z,99.90
2019-03-30T06:26:30.437Z,99.90
2019-03-30T06:29:14.456Z,99.90
2019-03-30T06:31:56.224Z,99.90
2019-03-30T06:34:38.123Z,99.90
2019-03-30T06:37:19.525Z,99.90
2019-03-30T06:46:16.470Z,99.90
2019-03-30T06:48:59.347Z,99.90
2019-03-30T06:51:40.706Z,99.90
2019-03-30T06:54:22.636Z,99.90
2019-03-30T06:57:03.641Z,99.90
2019-03-30T06:59:48.362Z,99.90
2019-03-30T07:05:13.870Z,99.90
2019-03-30T07:07:54.386Z,99.90
2019-03-30T07:22:00.072Z,99.90
2019-03-30T07:24:42.222Z,99.90
2019-03-30T07:27:27.410Z,99.90
2019-03-30T07:29:57.478Z,99.90
2019-03-30T07:32:46.611Z,99.90
2019-03-30T07:35:35.581Z,99.90
2019-03-30T07:41:22.521Z,99.90
2019-03-30T07:47:19.740Z,99.90
2019-03-30T07:50:09.739Z,99.90
2019-03-30T07:52:59.130Z,99.90
2019-03-30T07:55:41.188Z,99.90
2019-03-30T07:58:22.845Z,99.90
2019-03-30T08:01:03.059Z,99.90
2019-03-30T08:03:47.481Z,99.90
2019-03-30T08:06:33.763Z,99.90
2019-03-30T08:09:16.009Z,99.90
2019-03-30T08:11:58.892Z,99.90
2019-03-30T08:14:45.104Z,99.90
2019-03-30T08:20:11.984Z,99.70
2019-03-30T08:22:53.587Z,99.70
2019-03-30T08:25:38.109Z,99.50
2019-03-30T08:28:08.170Z,99.30
2019-03-30T08:30:57.512Z,99.10
2019-03-30T08:33:46.801Z,99.30
2019-03-30T08:36:36.075Z,99.40
2019-03-30T08:39:25.461Z,99.10
2019-03-30T08:42:14.682Z,98.50
2019-03-30T08:45:04.582Z,98.30
2019-03-30T08:47:53.904Z,98.00
2019-03-30T08:50:43.339Z,97.80
2019-03-30T08:53:32.632Z,97.60
2019-03-30T08:58:58.531Z,96.40
2019-03-30T09:01:39.792Z,96.40
2019-03-30T09:04:09.784Z,95.80
2019-03-30T09:06:58.912Z,95.80
2019-03-30T09:09:48.035Z,96.10
2019-03-30T09:12:39.148Z,96.20
2019-03-30T09:15:28.362Z,95.70
2019-03-30T09:18:17.496Z,95.60
2019-03-30T09:21:06.632Z,94.70
2019-03-30T09:26:45.397Z,93.80
2019-03-30T09:29:35.043Z,93.40
2019-03-30T09:32:24.654Z,92.60
2019-03-30T09:35:13.747Z,92.70
2019-03-30T09:40:51.136Z,92.80
2019-03-30T09:43:40.776Z,91.80
2019-03-30T09:46:30.247Z,90.90
2019-03-30T09:49:38.133Z,90.30
2019-03-30T09:55:19.730Z,89.30
2019-03-30T09:58:00.128Z,89.10
2019-03-30T10:06:09.871Z,88.30
2019-03-30T10:12:28.341Z,88.50
2019-03-30T10:15:18.533Z,86.00
2019-03-30T10:18:08.190Z,85.20
2019-03-30T10:20:58.324Z,84.50
2019-03-30T10:23:47.450Z,83.70
2019-03-30T10:26:37.601Z,82.30
2019-03-30T10:29:26.654Z,81.00
2019-03-30T10:38:35.239Z,77.70
2019-03-30T10:41:05.305Z,75.40
2019-03-30T10:43:54.436Z,73.70
2019-03-30T10:46:43.341Z,74.00
2019-03-30T10:49:32.167Z,75.20
2019-03-30T10:52:13.238Z,74.70
2019-03-30T11:00:34.618Z,72.50
2019-03-30T11:03:18.851Z,71.20
2019-03-30T11:11:28.179Z,69.10
2019-03-30T11:14:12.277Z,65.60
2019-03-30T11:16:55.837Z,64.30
2019-03-30T11:22:26.787Z,64.40
2019-03-30T11:25:09.080Z,62.90
2019-03-30T11:27:49.531Z,62.00
2019-03-30T11:30:30.738Z,61.60
2019-03-30T11:33:00.898Z,61.40
2019-03-30T11:35:49.971Z,62.30
2019-03-30T11:38:39.072Z,63.20
2019-03-30T11:41:28.383Z,64.20
2019-03-30T11:44:17.518Z,62.90
2019-03-30T11:47:25.094Z,63.60
2019-03-30T11:50:13.994Z,62.70
2019-03-30T11:52:56.078Z,61.00
2019-03-30T11:55:38.911Z,57.70
2019-03-30T12:01:08.143Z,49.40
2019-03-30T12:03:50.810Z,46.70
2019-03-30T12:06:32.569Z,45.10
2019-03-30T12:09:12.708Z,42.90
2019-03-30T12:11:54.142Z,42.60
2019-03-30T12:14:36.050Z,43.30
2019-03-30T12:17:20.544Z,43.10
2019-03-30T12:19:50.665Z,42.00
2019-03-30T12:25:37.151Z,40.60
2019-03-30T12:28:26.749Z,41.60
2019-03-30T12:31:08.378Z,40.00
2019-03-30T12:36:38.000Z,40.90
2019-03-30T12:39:20.370Z,43.90
2019-03-30T12:42:01.846Z,44.90
2019-03-30T12:44:31.839Z,42.10
2019-03-30T12:47:01.883Z,40.10
2019-03-30T12:49:31.897Z,39.70
2019-03-30T12:52:01.903Z,41.90
2019-03-30T12:54:50.967Z,44.80
2019-03-30T12:57:41.582Z,45.90
2019-03-30T13:00:30.738Z,46.00
2019-03-30T13:03:21.206Z,41.70
2019-03-30T13:06:10.422Z,38.50
2019-03-30T13:08:59.711Z,36.30
2019-03-30T13:11:49.214Z,34.60
2019-03-30T13:14:38.833Z,33.10
2019-03-30T13:17:27.930Z,30.90
2019-03-30T13:20:17.103Z,32.30
2019-03-30T13:23:06.258Z,33.70
2019-03-30T13:25:47.028Z,33.80
2019-03-30T13:28:28.659Z,33.20
2019-03-30T13:30:58.722Z,32.50
2019-03-30T13:33:48.781Z,32.60
2019-03-30T13:36:58.396Z,32.20
2019-03-30T13:39:47.591Z,31.90
2019-03-30T13:42:36.727Z,32.20
2019-03-30T13:48:10.703Z,33.70
2019-03-30T13:48:11.952Z,33.50
2019-03-30T13:50:41.925Z,32.20
2019-03-30T13:53:31.932Z,32.40
2019-03-30T13:56:21.019Z,32.20
2019-03-30T13:59:09.932Z,31.20
2019-03-30T14:01:59.032Z,30.00
2019-03-30T14:04:29.074Z,29.20
2019-03-30T14:06:59.137Z,29.30
2019-03-30T14:09:29.359Z,29.50
2019-03-30T14:11:59.396Z,29.40
2019-03-30T14:14:29.463Z,29.40
2019-03-30T14:17:20.291Z,30.60
2019-03-30T14:20:09.681Z,34.00
2019-03-30T14:22:58.871Z,34.30
2019-03-30T14:25:47.950Z,32.60
2019-03-30T14:28:37.090Z,30.00
2019-03-30T14:31:45.069Z,28.90
2019-03-30T14:34:26.081Z,28.50
2019-03-30T14:37:08.729Z,29.40
2019-03-30T14:45:31.535Z,35.90
2019-03-30T14:48:14.164Z,37.90
2019-03-30T14:50:55.651Z,39.70
2019-03-30T14:56:26.155Z,39.90
2019-03-30T15:01:56.767Z,34.20
2019-03-30T15:04:39.340Z,33.50
2019-03-30T15:10:06.087Z,35.80
2019-03-30T15:12:47.290Z,34.40
2019-03-30T15:15:27.810Z,31.90
2019-03-30T15:18:09.299Z,30.40
2019-03-30T15:20:50.599Z,31.40
2019-03-30T15:23:31.694Z,34.20
2019-03-30T15:28:59.820Z,35.40
2019-03-30T15:34:20.775Z,32.60
2019-03-30T15:37:02.358Z,32.40
2019-03-30T15:39:43.220Z,31.40
2019-03-30T15:42:25.273Z,30.60
2019-03-30T15:45:06.929Z,30.50
2019-03-30T15:47:48.743Z,29.10
2019-03-30T15:50:30.601Z,30.20
2019-03-30T15:53:01.635Z,33.20
2019-03-30T15:56:09.504Z,36.10
2019-03-30T16:01:37.679Z,37.00
2019-03-30T16:04:27.675Z,35.90
2019-03-30T16:07:16.903Z,35.40
2019-03-30T16:10:06.296Z,37.10
2019-03-30T16:12:56.379Z,35.00
2019-03-30T16:15:45.677Z,34.90
2019-03-30T16:21:29.469Z,38.60
2019-03-30T16:24:00.252Z,41.90
2019-03-30T16:29:33.138Z,47.00
2019-03-30T16:32:22.250Z,48.50
2019-03-30T16:35:05.034Z,50.10
2019-03-30T16:40:30.510Z,51.40
2019-03-30T16:46:04.049Z,52.90
2019-03-30T16:51:36.585Z,54.20
2019-03-30T16:57:07.013Z,55.60
2019-03-30T17:05:24.038Z,57.60
2019-03-30T17:08:07.183Z,57.40
2019-03-30T17:10:48.658Z,57.80
2019-03-30T17:13:28.932Z,58.80
2019-03-30T17:16:10.163Z,60.00
2019-03-30T17:21:38.630Z,63.60
2019-03-30T17:30:04.297Z,65.60
2019-03-30T17:32:46.308Z,66.60
2019-03-30T17:35:27.525Z,67.30
2019-03-30T17:38:10.313Z,67.50
2019-03-30T17:40:53.013Z,67.80
2019-03-30T17:43:34.711Z,69.10
2019-03-30T17:46:04.719Z,69.70
2019-03-30T17:48:53.579Z,70.40
2019-03-30T17:51:43.251Z,70.40
2019-03-30T17:54:52.099Z,70.60
2019-03-30T17:57:41.001Z,71.40
2019-03-30T18:03:41.174Z,73.50
2019-03-30T18:06:31.210Z,74.20
2019-03-30T18:12:05.779Z,74.50
2019-03-30T18:20:18.281Z,76.00
2019-03-30T18:23:01.033Z,76.90
2019-03-30T18:28:30.267Z,78.00
2019-03-30T18:31:11.242Z,78.60
2019-03-30T18:36:42.051Z,79.40
2019-03-30T18:39:24.973Z,79.90
2019-03-30T18:44:51.927Z,81.00
2019-03-30T18:47:33.070Z,82.40
2019-03-30T18:50:14.424Z,81.70
2019-03-30T18:52:56.798Z,82.30
2019-03-30T18:58:22.123Z,81.80
2019-03-30T19:03:58.310Z,82.80
2019-03-30T19:06:39.747Z,83.40
2019-03-30T19:09:10.019Z,83.90
2019-03-30T19:11:58.865Z,84.30
2019-03-30T19:14:47.941Z,84.80
2019-03-30T19:17:38.085Z,85.30
2019-03-30T19:20:27.742Z,85.60
2019-03-30T19:23:35.628Z,85.40
2019-03-30T19:29:05.260Z,84.90
2019-03-30T19:34:31.915Z,83.80
2019-03-30T19:37:01.976Z,83.80
2019-03-30T19:42:59.397Z,83.20
2019-03-30T19:46:07.045Z,83.50
2019-03-30T19:54:53.076Z,83.90
2019-03-30T19:57:43.099Z,83.80
2019-03-30T20:00:33.293Z,83.40
2019-03-30T20:03:03.949Z,83.20
2019-03-30T20:05:54.312Z,82.50
2019-03-30T20:09:02.693Z,82.10
2019-03-30T20:12:10.978Z,81.80
2019-03-30T20:18:17.649Z,81.30
2019-03-30T20:21:02.205Z,81.90
2019-03-30T20:23:45.565Z,81.80
2019-03-30T20:26:27.797Z,81.40
2019-03-30T20:29:24.420Z,81.40
2019-03-30T20:31:52.988Z,81.60
2019-03-30T20:34:35.928Z,81.20
2019-03-30T20:37:18.423Z,81.20
2019-03-30T20:39:59.870Z,80.80
2019-03-30T20:45:31.126Z,81.20
2019-03-30T20:50:59.622Z,81.20
2019-03-30T20:56:25.038Z,80.90
2019-03-30T20:59:07.121Z,81.10
2019-03-30T21:04:30.885Z,81.70
2019-03-30T21:12:50.221Z,82.70
2019-03-30T21:15:35.371Z,83.10
2019-03-30T21:18:16.725Z,83.10
2019-03-30T21:20:59.484Z,83.70
2019-03-30T21:23:42.204Z,84.20
2019-03-30T21:26:23.985Z,84.60
2019-03-30T21:29:07.342Z,84.90
2019-03-30T21:31:50.812Z,85.20
2019-03-30T21:37:24.720Z,86.00
2019-03-30T21:42:57.512Z,86.20
2019-03-30T21:48:26.362Z,87.70
2019-03-30T21:53:55.058Z,88.50
2019-03-30T21:56:36.026Z,88.20
2019-03-30T21:59:18.932Z,88.10
2019-03-30T22:02:01.309Z,88.20
2019-03-30T22:04:42.862Z,88.10
2019-03-30T22:13:05.741Z,87.80
2019-03-30T22:15:48.667Z,88.10
2019-03-30T22:18:30.447Z,88.30
2019-03-30T22:21:12.050Z,88.80
2019-03-30T22:26:40.145Z,89.50
2019-03-30T22:32:07.377Z,90.00
2019-03-30T22:40:26.956Z,90.10
2019-03-30T22:43:09.884Z,90.10
2019-03-30T22:48:38.088Z,90.40
2019-03-30T22:54:04.336Z,90.80
2019-03-30T22:56:46.233Z,90.90
2019-03-30T23:02:14.355Z,91.10
2019-03-30T23:04:56.156Z,91.30
2019-03-30T23:07:38.405Z,91.10
2019-03-30T23:13:03.985Z,91.30
2019-03-30T23:15:45.560Z,91.20
2019-03-30T23:18:28.102Z,91.00
2019-03-30T23:21:10.486Z,90.80
2019-03-30T23:29:33.373Z,91.10
2019-03-30T23:32:15.557Z,91.20
2019-03-30T23:34:56.836Z,91.50
2019-03-30T23:37:38.649Z,91.70
2019-03-30T23:40:20.734Z,91.50
2019-03-30T23:43:05.292Z,91.50
2019-03-30T23:45:50.432Z,91.50
2019-03-30T23:48:33.343Z,91.80
2019-03-30T23:51:13.609Z,91.90
2019-03-30T23:53:56.029Z,92.10
2019-03-30T23:56:38.506Z,92.10
2019-03-30T23:59:19.735Z,92.10
